Time;durP1;ratioP1;P1;durP2;ratioP2;P2;SDS_P1;SDS_P2;PMS_P1;PMS_P2;Temp;Humidity;BMP_temperature;BMP_pressure;BME280_temperature;BME280_humidity;BME280_pressure;Samples;Min_cycle;Max_cycle;Signal;HPM_P1;HPM_P2
2021/03/04 00:00:07;;;;;;;8.35;6.63;;;;;;;7.32;54.87;96075.22;5029756;28;20056;-77
2021/03/04 00:02:32;;;;;;;9.70;6.43;;;;;;;7.26;54.29;96060.38;5029089;28;20053;-77
2021/03/04 00:04:57;;;;;;;11.55;6.97;;;;;;;7.22;54.51;96064.63;5029779;28;20026;-77
2021/03/04 00:07:22;;;;;;;10.57;6.60;;;;;;;7.01;54.58;96008.97;5029448;28;20387;-77
2021/03/04 00:09:48;;;;;;;11.02;6.82;;;;;;;7.27;54.05;96041.59;5031468;28;20037;-77
2021/03/04 00:12:13;;;;;;;9.77;6.22;;;;;;;7.30;53.89;96056.16;5029300;28;20116;-75
2021/03/04 00:14:39;;;;;;;8.38;6.43;;;;;;;7.35;54.48;96053.53;5029423;28;20053;-75
2021/03/04 00:17:04;;;;;;;11.60;6.35;;;;;;;6.91;53.97;95984.31;5029216;28;20037;-76
2021/03/04 00:19:29;;;;;;;11.23;6.93;;;;;;;7.40;54.30;96055.38;5029379;28;20087;-77
2021/03/04 00:21:55;;;;;;;6.68;5.85;;;;;;;7.36;53.78;96046.38;5031173;28;20025;-76
2021/03/04 00:24:20;;;;;;;10.48;6.03;;;;;;;7.44;53.58;96053.81;5029233;28;20041;-77
2021/03/04 00:26:45;;;;;;;8.88;6.68;;;;;;;7.47;53.59;96056.75;5028926;28;20069;-75
2021/03/04 00:29:13;;;;;;;7.68;5.85;;;;;;;7.40;53.64;96042.16;5029115;28;20077;-76
2021/03/04 00:31:40;;;;;;;10.05;6.50;;;;;;;7.39;53.24;96043.22;5029057;28;20037;-75
2021/03/04 00:34:05;;;;;;;10.23;6.28;;;;;;;7.42;53.26;96046.16;5033942;28;20373;-77
2021/03/04 00:36:31;;;;;;;8.30;6.13;;;;;;;7.34;53.59;96027.31;5015301;28;20033;-76
2021/03/04 00:38:57;;;;;;;7.55;6.75;;;;;;;7.36;53.63;96033.94;5032579;28;20392;-77
2021/03/04 00:41:22;;;;;;;8.98;5.88;;;;;;;7.29;53.77;96022.81;5015307;28;20030;-79
2021/03/04 00:43:47;;;;;;;9.68;6.47;;;;;;;7.33;53.29;96031.81;5032818;28;20038;-76
2021/03/04 00:46:12;;;;;;;7.50;6.07;;;;;;;7.29;54.12;96033.41;5032792;28;20029;-76
2021/03/04 00:48:38;;;;;;;7.13;5.53;;;;;;;7.21;53.81;96018.00;5034744;28;20479;-77
2021/03/04 00:51:03;;;;;;;7.20;5.57;;;;;;;7.19;53.94;96020.94;5032847;28;20042;-76
2021/03/04 00:53:28;;;;;;;8.98;6.75;;;;;;;7.12;54.00;96015.09;5032641;28;20029;-76
2021/03/04 00:55:54;;;;;;;11.25;6.38;;;;;;;7.08;53.30;96002.66;5032855;28;20411;-77
2021/03/04 00:58:19;;;;;;;7.75;5.55;;;;;;;7.10;54.16;96005.81;5014737;28;20029;-78
2021/03/04 01:00:44;;;;;;;6.22;5.63;;;;;;;7.11;53.66;96010.03;5034750;28;20021;-77
2021/03/04 01:03:10;;;;;;;6.40;5.43;;;;;;;7.05;53.60;95996.00;5032481;28;20750;-77
2021/03/04 01:05:35;;;;;;;6.07;5.18;;;;;;;7.13;53.41;96008.75;5032907;28;20049;-78
2021/03/04 01:08:01;;;;;;;7.93;5.55;;;;;;;7.17;53.40;96001.09;5031021;28;20053;-75
2021/03/04 01:10:36;;;;;;;5.88;5.28;;;;;;;7.18;53.39;96000.81;5014715;28;20053;-76
2021/03/04 01:13:02;;;;;;;7.88;5.20;;;;;;;7.22;53.21;96001.09;5034184;28;20025;-77
2021/03/04 01:15:29;;;;;;;6.93;4.85;;;;;;;7.19;53.08;95991.81;5032525;28;20521;-78
2021/03/04 01:17:54;;;;;;;9.98;5.28;;;;;;;7.27;53.03;95995.81;5014699;28;20061;-76
2021/03/04 01:20:20;;;;;;;9.15;5.30;;;;;;;7.30;53.21;95982.84;5032665;28;20033;-75
2021/03/04 01:22:45;;;;;;;8.05;5.07;;;;;;;7.33;52.85;95975.47;5032263;28;20044;-78
2021/03/04 01:25:12;;;;;;;7.00;4.97;;;;;;;7.34;53.08;95977.03;5032501;28;20089;-66
2021/03/04 01:27:37;;;;;;;6.13;4.90;;;;;;;7.31;52.80;95967.75;5033420;28;20025;-78
2021/03/04 01:30:08;;;;;;;10.50;5.28;;;;;;;7.34;53.26;95972.53;5032252;28;20075;-77
2021/03/04 01:32:33;;;;;;;5.97;4.15;;;;;;;7.35;53.16;95963.53;5032270;28;20057;-78
2021/03/04 01:34:59;;;;;;;6.13;5.53;;;;;;;7.37;53.01;95963.25;5032230;28;20068;-78
2021/03/04 01:37:24;;;;;;;7.30;5.13;;;;;;;7.31;52.87;95957.19;5013417;28;20021;-77
2021/03/04 01:39:50;;;;;;;7.13;4.95;;;;;;;7.26;53.16;95949.22;5034300;28;20018;-77
2021/03/04 01:42:15;;;;;;;4.88;4.05;;;;;;;7.35;53.50;95957.44;5032098;28;20108;-77
2021/03/04 01:44:40;;;;;;;6.32;4.93;;;;;;;7.20;53.50;95926.47;5031564;28;20045;-77
2021/03/04 01:47:07;;;;;;;5.00;4.35;;;;;;;7.37;52.76;95950.03;5030850;28;20059;-78
2021/03/04 01:49:33;;;;;;;6.53;4.65;;;;;;;7.34;53.20;95940.78;5032241;28;20116;-78
2021/03/04 01:51:58;;;;;;;8.05;4.93;;;;;;;7.28;53.35;95932.03;5034068;28;20399;-78
2021/03/04 01:54:23;;;;;;;5.70;4.30;;;;;;;7.36;53.34;95936.00;5032138;28;20061;-76
2021/03/04 01:56:49;;;;;;;7.55;4.68;;;;;;;7.32;52.79;95928.84;5031790;28;20040;-78
2021/03/04 01:59:15;;;;;;;7.10;4.78;;;;;;;7.39;52.67;95938.13;5014185;28;20053;-77
2021/03/04 02:01:40;;;;;;;5.95;4.63;;;;;;;7.45;52.20;95936.28;5031853;28;20045;-77
2021/03/04 02:04:06;;;;;;;7.05;4.40;;;;;;;7.46;52.74;95929.94;5033886;28;20067;-77
2021/03/04 02:06:55;;;;;;;7.13;4.50;;;;;;;7.51;51.94;95932.56;5031938;28;20124;-78
2021/03/04 02:09:21;;;;;;;4.97;4.22;;;;;;;7.52;51.79;95928.88;5031588;28;20447;-79
2021/03/04 02:11:55;;;;;;;6.05;4.45;;;;;;;7.61;51.56;95923.84;5031444;28;20069;-78
2021/03/04 02:14:28;;;;;;;6.57;4.50;;;;;;;7.59;51.21;95907.44;5013803;28;20513;-78
2021/03/04 02:16:58;;;;;;;7.97;5.10;;;;;;;7.63;51.26;95905.84;5014867;23;20058;-82
2021/03/04 02:19:48;;;;;;;5.13;3.90;;;;;;;7.73;51.40;95919.88;4992190;28;20105;-74
2021/03/04 02:22:23;;;;;;;5.88;4.40;;;;;;;7.72;50.82;95898.94;4974489;28;20031;-77
2021/03/04 02:25:04;;;;;;;11.48;4.40;;;;;;;7.78;50.89;95906.63;4977319;28;20417;-77
2021/03/04 02:27:31;;;;;;;7.13;4.38;;;;;;;7.79;50.17;95902.13;4992178;28;20038;-78
2021/03/04 02:30:14;;;;;;;7.53;4.60;;;;;;;7.85;50.08;95905.56;4992204;28;20038;-77
2021/03/04 02:32:47;;;;;;;6.50;4.63;;;;;;;7.79;50.10;95894.97;4991970;28;20497;-77
2021/03/04 02:35:28;;;;;;;5.15;4.40;;;;;;;7.87;49.95;95904.22;4992206;28;20066;-81
2021/03/04 02:37:57;;;;;;;5.47;4.57;;;;;;;7.88;49.70;95897.06;4991926;28;20046;-77
2021/03/04 02:40:25;;;;;;;6.22;4.25;;;;;;;7.95;49.04;95897.59;4991945;28;20109;-78
2021/03/04 02:42:52;;;;;;;7.10;4.68;;;;;;;7.94;49.03;95888.84;4993810;28;20026;-77
2021/03/04 02:45:22;;;;;;;6.63;4.57;;;;;;;8.03;49.38;95899.69;4992133;28;20046;-78
2021/03/04 02:47:48;;;;;;;5.53;4.35;;;;;;;8.01;49.10;95893.88;4991573;28;20440;-78
2021/03/04 02:50:14;;;;;;;6.30;4.18;;;;;;;8.09;49.24;95901.28;4991534;28;20043;-77
2021/03/04 02:52:40;;;;;;;5.93;4.10;;;;;;;8.11;48.55;95901.78;4991526;28;20511;-77
2021/03/04 02:55:07;;;;;;;8.93;4.63;;;;;;;8.15;48.27;95904.72;4993890;28;20049;-77
2021/03/04 02:57:34;;;;;;;7.85;5.00;;;;;;;8.11;48.74;95885.91;4973957;28;20125;-76
2021/03/04 03:00:00;;;;;;;5.53;4.60;;;;;;;8.23;48.32;95899.63;4974029;28;20126;-78
2021/03/04 03:02:28;;;;;;;5.18;4.43;;;;;;;8.25;47.73;95894.88;4974187;28;20125;-78
2021/03/04 03:04:54;;;;;;;5.82;4.20;;;;;;;8.27;47.86;95889.28;4991563;28;20065;-78
2021/03/04 03:07:21;;;;;;;9.57;4.78;;;;;;;8.36;47.75;95887.69;4973921;28;20041;-77
2021/03/04 03:09:47;;;;;;;6.22;4.30;;;;;;;8.26;47.71;95866.50;4993490;28;20476;-77
2021/03/04 03:12:15;;;;;;;6.35;3.83;;;;;;;8.40;47.35;95880.00;4991329;28;20049;-77
2021/03/04 03:14:41;;;;;;;5.55;4.25;;;;;;;8.38;47.70;95879.47;4991522;28;20125;-78
2021/03/04 03:17:07;;;;;;;9.95;5.13;;;;;;;8.42;46.98;95883.16;4991335;28;20050;-78
2021/03/04 03:19:33;;;;;;;6.15;4.85;;;;;;;8.42;47.19;95886.59;4991628;28;20042;-79
2021/03/04 03:21:59;;;;;;;7.10;4.55;;;;;;;8.44;47.13;95883.69;4993021;28;20031;-78
2021/03/04 03:24:24;;;;;;;5.43;4.50;;;;;;;8.39;47.25;95889.00;4991362;28;20041;-78
2021/03/04 03:26:50;;;;;;;10.07;5.05;;;;;;;8.41;47.54;95886.88;4991209;28;20034;-76
2021/03/04 03:29:15;;;;;;;6.10;4.20;;;;;;;8.35;47.34;95875.47;4974059;28;20065;-79
2021/03/04 03:31:42;;;;;;;11.30;4.65;;;;;;;8.31;47.29;95879.75;4991021;28;20074;-78
2021/03/04 03:34:10;;;;;;;5.45;4.85;;;;;;;8.34;47.42;95885.28;4993131;28;20080;-78
2021/03/04 03:36:36;;;;;;;8.75;4.95;;;;;;;8.33;47.46;95878.38;4991229;28;20057;-78
2021/03/04 03:39:05;;;;;;;7.43;5.22;;;;;;;8.26;47.63;95877.09;4973829;28;20046;-78
2021/03/04 03:41:32;;;;;;;6.05;4.07;;;;;;;8.24;47.59;95876.56;4991323;28;20042;-78
2021/03/04 03:43:59;;;;;;;14.57;5.35;;;;;;;8.29;47.72;95880.00;4973897;28;20030;-77
2021/03/04 03:46:25;;;;;;;10.45;4.85;;;;;;;8.22;47.73;95866.25;4990996;28;20058;-78
2021/03/04 03:48:51;;;;;;;6.10;4.68;;;;;;;8.19;47.35;95863.31;4991953;28;20229;-77
2021/03/04 03:51:17;;;;;;;6.10;4.68;;;;;;;8.29;47.75;95882.66;4990507;28;20556;-78
2021/03/04 03:53:44;;;;;;;10.10;5.10;;;;;;;8.20;47.79;95863.06;4990034;28;20042;-78
2021/03/04 03:56:10;;;;;;;8.20;4.53;;;;;;;8.20;47.87;95864.94;4990997;28;20042;-78
2021/03/04 03:58:37;;;;;;;8.13;4.85;;;;;;;8.28;47.75;95881.06;4973403;28;20105;-79
2021/03/04 04:01:05;;;;;;;7.13;5.05;;;;;;;8.23;47.27;95875.78;4992825;28;20034;-77
2021/03/04 04:03:31;;;;;;;10.63;5.40;;;;;;;8.20;47.86;95871.03;4990742;28;20097;-76
2021/03/04 04:05:57;;;;;;;6.82;4.93;;;;;;;8.27;47.72;95876.81;4990933;28;20042;-77
2021/03/04 04:08:25;;;;;;;7.32;5.32;;;;;;;8.25;47.42;95873.66;4992404;28;20042;-78
2021/03/04 04:10:51;;;;;;;6.20;4.80;;;;;;;8.26;47.31;95877.09;4977366;28;20404;-78
2021/03/04 04:13:20;;;;;;;5.60;4.57;;;;;;;8.18;47.10;95859.88;4994593;28;20026;-78
2021/03/04 04:15:45;;;;;;;8.80;4.57;;;;;;;8.31;47.79;95883.19;4996566;28;20396;-77
2021/03/04 04:18:11;;;;;;;6.18;4.45;;;;;;;8.21;47.99;95867.31;4994441;28;20085;-78
2021/03/04 04:20:37;;;;;;;10.13;4.78;;;;;;;8.34;47.65;95884.47;4994794;28;20069;-77
2021/03/04 04:23:02;;;;;;;6.78;5.13;;;;;;;8.36;47.45;95870.97;4994382;28;20066;-79
2021/03/04 04:25:28;;;;;;;11.13;5.05;;;;;;;8.31;47.50;95867.28;4994710;28;20030;-77
2021/03/04 04:27:55;;;;;;;7.97;5.05;;;;;;;8.25;47.68;95857.75;4996283;28;20480;-78
2021/03/04 04:30:23;;;;;;;17.60;4.90;;;;;;;8.26;47.81;95866.50;4994433;28;20489;-78
2021/03/04 04:32:48;;;;;;;24.88;6.25;;;;;;;8.24;47.92;95855.34;4994278;28;20527;-78
2021/03/04 04:35:16;;;;;;;22.92;5.15;;;;;;;8.29;48.33;95864.13;4995262;28;20043;-78
2021/03/04 04:37:42;;;;;;;16.27;5.90;;;;;;;8.26;48.42;95856.69;4994419;28;20047;-78
2021/03/04 04:40:08;;;;;;;19.10;5.55;;;;;;;8.24;48.07;95850.06;4996839;28;20113;-78
2021/03/04 04:42:34;;;;;;;12.27;5.20;;;;;;;8.27;48.79;95863.56;4994318;28;20038;-78
2021/03/04 04:45:00;;;;;;;10.98;5.35;;;;;;;8.24;48.51;95852.72;4994651;28;20045;-77
2021/03/04 04:47:25;;;;;;;11.73;5.38;;;;;;;8.24;48.97;95852.72;4995170;28;20038;-78
2021/03/04 04:49:51;;;;;;;8.40;5.68;;;;;;;8.18;48.36;95841.34;4994784;28;20077;-79
2021/03/04 04:52:16;;;;;;;18.75;5.30;;;;;;;8.21;48.52;95838.16;4994587;28;20061;-78
2021/03/04 04:54:42;;;;;;;11.20;4.90;;;;;;;8.19;48.44;95836.81;4979156;28;20018;-77
2021/03/04 04:57:07;;;;;;;11.32;5.35;;;;;;;8.23;48.43;95837.88;4993885;28;20027;-77
2021/03/04 04:59:33;;;;;;;6.53;4.85;;;;;;;8.20;49.07;95839.22;4976654;28;20058;-76
2021/03/04 05:01:58;;;;;;;7.93;4.60;;;;;;;8.23;48.87;95837.88;4976236;28;20097;-77
2021/03/04 05:04:24;;;;;;;9.63;5.18;;;;;;;8.19;48.64;95835.00;4993805;28;20033;-79
2021/03/04 05:06:49;;;;;;;8.13;4.78;;;;;;;8.22;48.79;95829.13;4995369;28;20026;-77
2021/03/04 05:09:14;;;;;;;9.35;5.05;;;;;;;8.20;48.92;95828.63;4993618;28;20165;-77
2021/03/04 05:11:39;;;;;;;7.43;5.03;;;;;;;8.15;49.02;95823.34;4993338;28;20042;-77
2021/03/04 05:14:05;;;;;;;9.18;4.97;;;;;;;8.17;48.75;95823.84;4993456;28;20396;-78
2021/03/04 05:16:30;;;;;;;11.95;6.43;;;;;;;8.26;48.50;95830.19;4993350;28;20081;-79
2021/03/04 05:18:56;;;;;;;12.35;5.43;;;;;;;8.18;48.49;95816.69;4994317;28;20490;-78
2021/03/04 05:21:21;;;;;;;6.97;4.90;;;;;;;8.21;48.83;95816.97;4992966;28;20035;-79
2021/03/04 05:23:46;;;;;;;6.28;4.78;;;;;;;8.29;48.36;95827.00;4993499;28;20048;-79
2021/03/04 05:26:12;;;;;;;7.88;4.35;;;;;;;8.24;48.23;95815.59;4976099;28;20073;-78
2021/03/04 05:28:37;;;;;;;8.77;4.80;;;;;;;8.16;48.78;95797.63;4993260;28;20108;-78
2021/03/04 05:31:02;;;;;;;8.80;4.90;;;;;;;8.26;48.70;95810.84;4977624;28;20392;-78
2021/03/04 05:33:28;;;;;;;5.47;4.82;;;;;;;8.24;48.31;95819.06;4992919;28;20035;-78
2021/03/04 05:35:53;;;;;;;10.77;4.75;;;;;;;8.15;48.56;95796.06;4993298;28;20039;-78
2021/03/04 05:38:18;;;;;;;12.75;5.43;;;;;;;8.23;48.72;95806.06;4993231;28;20174;-78
2021/03/04 05:40:43;;;;;;;10.38;4.70;;;;;;;8.21;48.08;95793.09;4993141;28;20035;-78
2021/03/04 05:43:10;;;;;;;7.90;4.63;;;;;;;8.29;48.23;95819.06;4995017;28;20041;-78
2021/03/04 05:45:38;;;;;;;11.93;5.32;;;;;;;8.31;48.55;95813.47;4993537;28;20043;-77
2021/03/04 05:48:04;;;;;;;18.63;4.78;;;;;;;8.34;48.37;95819.03;4992319;28;20035;-79
2021/03/04 05:50:31;;;;;;;8.15;5.05;;;;;;;8.26;47.97;95798.38;4992546;28;20069;-77
2021/03/04 05:53:05;;;;;;;7.63;4.95;;;;;;;8.33;47.89;95801.50;4992321;28;20496;-77
2021/03/04 05:55:30;;;;;;;10.50;5.07;;;;;;;8.28;47.96;95796.25;4992641;28;20483;-77
2021/03/04 05:57:57;;;;;;;15.25;5.35;;;;;;;8.37;48.14;95809.75;4994394;28;20098;-77
2021/03/04 06:00:23;;;;;;;14.73;4.70;;;;;;;8.26;48.17;95787.78;4974937;28;20033;-77
2021/03/04 06:02:50;;;;;;;9.93;5.00;;;;;;;8.43;47.74;95802.56;4975160;28;20042;-77
2021/03/04 06:05:16;;;;;;;9.98;4.95;;;;;;;8.45;47.69;95806.53;4992442;28;20504;-80
2021/03/04 06:07:43;;;;;;;14.10;4.82;;;;;;;8.46;47.48;95794.06;4992372;28;20061;-80
2021/03/04 06:10:09;;;;;;;9.48;4.80;;;;;;;8.41;47.88;95788.81;4994219;28;20086;-80
2021/03/04 06:12:34;;;;;;;13.90;5.03;;;;;;;8.46;47.96;95799.38;4992073;28;20423;-80
2021/03/04 06:15:00;;;;;;;12.93;5.20;;;;;;;8.49;47.81;95798.81;4992164;28;20035;-76
2021/03/04 06:17:25;;;;;;;9.85;5.22;;;;;;;8.45;47.92;95779.25;4991969;28;20069;-79
2021/03/04 06:19:58;;;;;;;16.10;4.53;;;;;;;8.55;47.42;95779.19;4992103;28;20550;-77
2021/03/04 06:22:29;;;;;;;9.20;4.45;;;;;;;8.57;48.00;95782.34;4991814;28;20345;-78
2021/03/04 06:24:56;;;;;;;10.32;4.22;;;;;;;8.65;47.74;95796.84;4993831;28;20038;-77
2021/03/04 06:27:29;;;;;;;18.42;4.38;;;;;;;8.68;47.68;95788.38;4974668;28;20035;-80
2021/03/04 06:29:59;;;;;;;17.63;5.10;;;;;;;8.69;47.45;95777.47;4991712;28;20093;-80
2021/03/04 06:32:25;;;;;;;10.40;4.25;;;;;;;8.81;47.39;95788.53;4991233;28;20117;-80
2021/03/04 06:35:11;;;;;;;11.07;4.30;;;;;;;8.78;47.32;95770.53;4974103;28;20042;-79
2021/03/04 06:37:40;;;;;;;6.55;4.07;;;;;;;8.95;47.02;95785.25;4973715;28;20415;-78
2021/03/04 06:40:15;;;;;;;13.75;4.20;;;;;;;8.97;46.71;95781.25;4993309;28;20022;-78
2021/03/04 06:42:42;;;;;;;21.67;3.92;;;;;;;9.01;46.24;95776.19;4990356;28;20114;-78
2021/03/04 06:45:21;;;;;;;11.77;4.47;;;;;;;9.12;46.69;95777.69;4991065;28;20043;-75
2021/03/04 06:47:47;;;;;;;11.02;4.07;;;;;;;9.15;46.25;95774.47;4972739;28;20042;-74
2021/03/04 06:50:24;;;;;;;13.05;3.85;;;;;;;9.22;46.33;95772.31;4973383;28;20035;-76
2021/03/04 06:52:49;;;;;;;8.70;3.72;;;;;;;9.37;45.92;95780.13;4990119;28;20046;-75
2021/03/04 06:55:15;;;;;;;9.88;4.03;;;;;;;9.45;45.72;95785.88;4990550;28;20353;-72
2021/03/04 06:57:41;;;;;;;10.30;3.38;;;;;;;9.43;45.45;95766.78;4974273;28;20029;-71
2021/03/04 07:00:22;;;;;;;4.80;3.85;;;;;;;9.56;45.47;95782.06;4974446;28;20022;-79
2021/03/04 07:02:58;;;;;;;9.40;4.30;;;;;;;9.59;45.03;95768.22;4970321;28;20031;-75
2021/03/04 07:05:24;;;;;;;10.85;4.05;;;;;;;9.71;44.78;95773.91;4971441;28;20061;-71
2021/03/04 07:07:52;;;;;;;10.48;4.13;;;;;;;9.78;44.85;95766.44;4971663;28;20404;-75
2021/03/04 07:10:19;;;;;;;17.98;5.18;;;;;;;9.85;44.62;95766.88;4971528;28;20030;-78
2021/03/04 07:12:46;;;;;;;15.93;4.25;;;;;;;9.81;44.90;95751.78;4974208;28;20023;-79
2021/03/04 07:15:14;;;;;;;14.50;4.75;;;;;;;10.01;44.30;95774.66;4970970;28;20049;-73
2021/03/04 07:17:41;;;;;;;16.80;4.03;;;;;;;10.06;44.18;95771.94;4971751;28;20043;-79
2021/03/04 07:20:11;;;;;;;10.38;4.10;;;;;;;10.05;43.25;95757.06;4972323;28;20070;-78
2021/03/04 07:22:37;;;;;;;9.77;4.35;;;;;;;10.22;43.43;95781.31;4971848;28;20098;-73
2021/03/04 07:25:04;;;;;;;9.68;3.75;;;;;;;10.30;42.91;95771.94;4973371;28;20413;-74
2021/03/04 07:27:29;;;;;;;9.90;4.28;;;;;;;10.37;42.76;95770.50;4969755;28;20035;-73
2021/03/04 07:29:54;;;;;;;16.05;4.18;;;;;;;10.50;42.55;95762.91;4970058;28;20049;-79
2021/03/04 07:32:22;;;;;;;15.05;3.95;;;;;;;10.62;42.19;95766.69;4969997;28;20047;-76
2021/03/04 07:34:48;;;;;;;29.55;4.80;;;;;;;10.80;41.90;95770.44;4971204;28;20416;-77
2021/03/04 07:37:17;;;;;;;22.65;5.10;;;;;;;10.97;41.22;95769.13;4971121;28;20038;-74
2021/03/04 07:39:43;;;;;;;13.13;4.00;;;;;;;11.13;41.07;95770.44;4974014;28;20050;-80
2021/03/04 07:42:20;;;;;;;10.27;3.70;;;;;;;11.27;40.55;95765.94;4971291;28;20089;-80
2021/03/04 07:44:45;;;;;;;12.73;4.00;;;;;;;11.37;40.38;95755.13;4972080;28;20046;-81
2021/03/04 07:47:11;;;;;;;20.55;3.70;;;;;;;11.49;39.91;95764.50;4971456;28;20133;-76
2021/03/04 07:49:42;;;;;;;10.02;3.47;;;;;;;11.54;40.29;95753.75;4971136;28;20126;-76
2021/03/04 07:52:12;;;;;;;17.08;3.38;;;;;;;11.69;39.65;95756.13;4972718;28;20113;-75
2021/03/04 07:54:43;;;;;;;20.67;4.20;;;;;;;11.78;39.92;95746.38;4970314;28;20101;-74
2021/03/04 07:57:10;;;;;;;14.38;4.18;;;;;;;11.84;39.09;95753.22;4971475;28;20031;-79
2021/03/04 07:59:47;;;;;;;12.32;3.10;;;;;;;11.92;38.77;95741.84;4970717;28;20039;-79
2021/03/04 08:02:27;;;;;;;18.35;3.97;;;;;;;12.04;39.21;95756.56;4971695;28;20043;-79
2021/03/04 08:05:11;;;;;;;10.90;3.53;;;;;;;12.15;39.24;95750.72;4972024;28;20039;-79
2021/03/04 08:07:37;;;;;;;11.30;3.45;;;;;;;12.25;38.40;95746.28;4971765;28;20035;-81
2021/03/04 08:10:14;;;;;;;7.13;3.45;;;;;;;12.36;38.40;95748.41;4973837;28;20495;-81
2021/03/04 08:12:50;;;;;;;8.30;3.35;;;;;;;12.47;37.50;95735.63;4971843;28;20122;-80
2021/03/04 08:15:17;;;;;;;9.40;3.65;;;;;;;12.54;37.89;95722.69;4970378;28;20039;-80
2021/03/04 08:17:42;;;;;;;12.27;3.30;;;;;;;12.66;37.40;95719.47;4970353;28;20401;-79
2021/03/04 08:20:12;;;;;;;9.65;4.18;;;;;;;12.90;37.07;95729.88;4971430;28;20038;-78
2021/03/04 08:22:50;;;;;;;6.28;3.35;;;;;;;13.01;36.99;95737.31;4970957;28;20043;-79
2021/03/04 08:25:23;;;;;;;9.60;3.42;;;;;;;13.13;36.51;95728.75;4971699;28;20362;-78
2021/03/04 08:27:51;;;;;;;6.35;3.55;;;;;;;13.31;35.71;95728.84;4973253;28;20453;-79
2021/03/04 08:30:37;;;;;;;7.75;3.35;;;;;;;13.38;34.63;95724.66;4971675;28;20556;-79
2021/03/04 08:33:07;;;;;;;6.53;2.70;;;;;;;13.39;34.32;95720.91;4971534;28;20045;-79
2021/03/04 08:35:38;;;;;;;7.07;3.00;;;;;;;13.52;33.93;95719.25;4971488;28;20045;-79
2021/03/04 08:38:06;;;;;;;5.35;3.10;;;;;;;13.66;33.40;95709.22;4971421;28;20043;-78
2021/03/04 08:40:47;;;;;;;8.13;3.40;;;;;;;13.85;33.58;95711.66;4971634;28;20039;-79
2021/03/04 08:43:17;;;;;;;5.38;2.83;;;;;;;13.94;33.51;95700.97;4971436;28;20023;-78
2021/03/04 08:45:44;;;;;;;6.13;3.60;;;;;;;13.85;33.11;95703.63;4973345;28;20018;-79
2021/03/04 08:48:11;;;;;;;5.10;3.63;;;;;;;13.86;32.44;95704.41;4971279;28;20047;-80
2021/03/04 08:50:42;;;;;;;7.85;3.83;;;;;;;13.75;33.10;95698.56;4969811;28;20054;-79
2021/03/04 08:53:16;;;;;;;8.80;3.85;;;;;;;13.96;33.05;95701.44;4971391;28;20137;-80
2021/03/04 08:55:50;;;;;;;7.07;3.90;;;;;;;13.89;32.33;95701.13;4974077;28;20053;-80
2021/03/04 08:58:17;;;;;;;6.95;4.43;;;;;;;13.56;32.60;95698.78;4974742;28;20054;-80
2021/03/04 09:00:52;;;;;;;6.53;4.75;;;;;;;13.97;32.70;95693.13;4977197;28;20026;-79
2021/03/04 09:03:19;;;;;;;8.70;4.68;;;;;;;13.35;32.40;95681.75;4974712;28;20078;-80
2021/03/04 09:05:45;;;;;;;9.95;4.95;;;;;;;13.17;33.60;95676.28;4973764;28;20055;-80
2021/03/04 09:08:15;;;;;;;13.40;5.43;;;;;;;13.33;33.03;95691.97;4973419;28;20089;-80
2021/03/04 09:10:45;;;;;;;9.35;4.75;;;;;;;12.89;33.78;95680.22;4974625;28;20046;-79
2021/03/04 09:13:10;;;;;;;11.18;5.05;;;;;;;13.13;33.61;95679.88;4974320;28;20033;-75
2021/03/04 09:15:42;;;;;;;13.55;5.63;;;;;;;13.40;33.79;95677.03;4975442;28;20106;-80
2021/03/04 09:18:09;;;;;;;8.48;5.00;;;;;;;13.74;32.46;95660.34;4974456;28;20039;-79
2021/03/04 09:20:34;;;;;;;10.85;5.28;;;;;;;14.39;32.81;95660.59;4974339;28;20635;-79
2021/03/04 09:23:00;;;;;;;15.45;6.50;;;;;;;14.01;32.24;95666.53;4973974;28;20165;-79
2021/03/04 09:25:26;;;;;;;14.55;6.57;;;;;;;13.46;33.05;95665.16;4973359;28;20018;-80
2021/03/04 09:27:52;;;;;;;10.38;5.90;;;;;;;13.45;33.42;95654.75;4976078;28;20073;-80
2021/03/04 09:30:28;;;;;;;15.18;6.45;;;;;;;14.14;32.78;95652.25;4975074;28;20042;-80
2021/03/04 09:32:55;;;;;;;12.57;5.75;;;;;;;14.55;32.12;95643.75;4973064;28;20086;-79
2021/03/04 09:35:21;;;;;;;12.50;6.10;;;;;;;13.72;32.58;95643.84;4974275;28;20113;-80
2021/03/04 09:37:46;;;;;;;16.90;6.30;;;;;;;13.89;32.11;95629.69;4974224;28;20382;-80
2021/03/04 09:40:27;;;;;;;25.35;7.70;;;;;;;14.13;32.53;95639.97;4974670;28;20047;-78
2021/03/04 09:42:52;;;;;;;14.38;6.93;;;;;;;13.22;33.17;95641.47;4976150;28;20026;-76
2021/03/04 09:45:18;;;;;;;12.52;7.05;;;;;;;12.62;34.57;95636.56;4972888;28;20113;-79
2021/03/04 09:47:48;;;;;;;10.02;6.70;;;;;;;12.59;34.49;95629.16;4973661;28;20543;-78
2021/03/04 09:50:22;;;;;;;9.55;7.00;;;;;;;12.83;34.15;95638.72;4972508;28;20065;-79
2021/03/04 09:53:08;;;;;;;14.18;7.68;;;;;;;12.44;34.23;95619.66;4973502;28;20055;-78
2021/03/04 09:55:41;;;;;;;11.45;7.32;;;;;;;13.56;32.51;95623.97;4973810;28;20043;-78
2021/03/04 09:58:18;;;;;;;12.60;6.90;;;;;;;13.44;32.30;95629.91;4975464;28;20421;-79
2021/03/04 10:00:44;;;;;;;12.50;6.80;;;;;;;12.92;33.09;95627.00;4974270;28;20047;-79
2021/03/04 10:03:13;;;;;;;14.75;6.55;;;;;;;12.75;32.92;95621.56;4973468;28;20042;-78
2021/03/04 10:05:49;;;;;;;13.73;6.05;;;;;;;12.78;32.40;95620.94;4972247;28;20466;-75
2021/03/04 10:08:17;;;;;;;10.52;6.25;;;;;;;12.48;33.29;95620.59;4972583;28;20564;-73
2021/03/04 10:10:44;;;;;;;11.80;6.40;;;;;;;12.60;33.19;95617.41;4972616;28;20399;-76
2021/03/04 10:13:09;;;;;;;10.02;5.30;;;;;;;13.53;32.09;95622.72;4974780;28;20030;-79
2021/03/04 10:15:42;;;;;;;13.23;5.88;;;;;;;12.98;30.93;95609.75;4972854;28;20123;-72
2021/03/04 10:18:09;;;;;;;9.63;5.55;;;;;;;13.09;30.92;95604.13;4972648;28;20066;-72
2021/03/04 10:20:44;;;;;;;10.70;5.28;;;;;;;13.33;30.38;95599.22;4970663;28;20035;-75
2021/03/04 10:23:10;;;;;;;8.82;5.93;;;;;;;12.77;31.24;95600.69;4972337;28;20393;-74
2021/03/04 10:25:36;;;;;;;8.90;4.85;;;;;;;13.12;31.15;95588.28;4972865;28;20073;-78
2021/03/04 10:28:02;;;;;;;12.73;5.82;;;;;;;12.67;31.61;95585.72;4974316;28;20475;-72
2021/03/04 10:30:29;;;;;;;18.08;6.15;;;;;;;12.59;32.01;95594.47;4970560;28;20117;-75
2021/03/04 10:32:55;;;;;;;10.27;5.22;;;;;;;12.43;32.77;95599.38;4972185;28;20035;-80
2021/03/04 10:35:24;;;;;;;8.80;5.07;;;;;;;12.45;33.33;95602.53;4972803;28;20037;-77
2021/03/04 10:37:49;;;;;;;7.90;4.95;;;;;;;12.48;32.59;95591.25;4971409;28;20133;-77
2021/03/04 10:40:16;;;;;;;10.43;5.90;;;;;;;12.31;32.72;95593.81;4966694;28;20489;-81
2021/03/04 10:42:42;;;;;;;9.02;5.90;;;;;;;12.26;33.40;95577.94;4955027;28;20050;-77
2021/03/04 10:45:10;;;;;;;7.30;5.63;;;;;;;12.24;33.43;95574.78;4952735;28;20434;-77
2021/03/04 10:47:36;;;;;;;10.63;5.80;;;;;;;12.96;32.72;95579.91;4952781;28;20036;-73
2021/03/04 10:50:03;;;;;;;8.68;5.45;;;;;;;13.25;32.09;95579.38;4952664;28;20493;-74
2021/03/04 10:52:28;;;;;;;12.18;5.70;;;;;;;12.67;32.69;95572.38;4952434;28;20062;-75
2021/03/04 10:54:55;;;;;;;9.18;6.10;;;;;;;12.52;32.77;95564.75;4954454;29;20385;-74
2021/03/04 10:57:20;;;;;;;9.10;6.00;;;;;;;12.52;32.44;95578.09;4952159;28;20051;-76
2021/03/04 10:59:46;;;;;;;8.70;6.57;;;;;;;12.27;33.37;95566.16;4951336;28;20039;-75
2021/03/04 11:02:11;;;;;;;14.10;5.90;;;;;;;12.73;33.03;95563.13;4950869;28;20039;-75
2021/03/04 11:04:37;;;;;;;15.45;6.57;;;;;;;12.67;32.87;95566.25;4952457;28;20043;-75
2021/03/04 11:07:02;;;;;;;8.77;6.45;;;;;;;12.44;33.17;95539.59;4954055;28;20054;-76
2021/03/04 11:09:29;;;;;;;11.82;6.45;;;;;;;12.09;33.17;95551.94;4952443;28;20035;-75
2021/03/04 11:11:54;;;;;;;11.98;7.63;;;;;;;12.43;33.27;95538.00;4952386;28;20048;-75
2021/03/04 11:14:19;;;;;;;11.70;7.72;;;;;;;12.82;33.05;95541.03;4952625;28;20497;-77
2021/03/04 11:16:45;;;;;;;15.45;7.55;;;;;;;13.36;32.45;95523.81;4951804;28;20059;-78
2021/03/04 11:19:11;;;;;;;12.60;7.25;;;;;;;13.27;32.10;95541.69;4954752;28;20027;-80
2021/03/04 11:21:37;;;;;;;13.25;6.55;;;;;;;12.42;33.12;95533.00;4952100;29;20520;-79
2021/03/04 11:24:05;;;;;;;9.10;7.00;;;;;;;12.28;34.20;95522.38;4951707;28;20028;-79
2021/03/04 11:26:42;;;;;;;11.38;7.20;;;;;;;12.88;33.84;95521.91;4953041;28;20067;-80
2021/03/04 11:29:08;;;;;;;16.13;7.22;;;;;;;13.14;32.86;95510.50;4952990;28;20031;-79
2021/03/04 11:31:34;;;;;;;17.33;7.60;;;;;;;13.06;33.28;95522.75;4951986;28;20050;-76
2021/03/04 11:34:00;;;;;;;12.00;7.72;;;;;;;13.06;32.37;95500.59;4954613;28;20027;-79
2021/03/04 11:36:27;;;;;;;10.40;6.60;;;;;;;13.05;32.61;95505.16;4952519;28;20031;-78